Terminal Aerodrome Forecast
Issued by NWS

Home | Current Version | Previous Version | Text Only | Print | Product List | Glossary On
Versions: 1 2 3 4 5 6 7 8 9 10 11 12 13 14 15
000
FTUS41 KBOX 252320
TAFHYA
TAF
KHYA 252320Z 2600/2624 10014G26KT 3SM -SHRA BR OVC005
     FM260200 10014G23KT 3SM -SHRA BR OVC005 WS020/14040KT
     FM260500 11013G23KT 2SM -SHRA BR OVC008 WS020/15050KT
     FM260800 12014G24KT 2SM -SHRA BR OVC008 WS020/16055KT
     FM261300 13014G27KT 2SM -RA BR OVC008 WS020/16055KT
     FM261600 14014G23KT 2SM -RA BR OVC008 WS020/17045KT
     FM261900 14013G20KT 2SM BR VCSH OVC008
     FM262300 13009KT 1 1/2SM BR VCSH OVC008=

USA.gov is the U.S. government's official web portal to all federal, state and local government web resources and services.